Hartford, Connecticut
Traffic Map
Current Weather Conditions
Hartford, Connecticut
Clear
Clear

Feels Like: 7°
Wind Chill: Ceiling: Unl
Heat Index: Visibility: 10mi
Dew Point: Wind: 3mph
Humidity: 65% Direction: 150° (SSE)
Pressure: 29.76in Gusts: 0mph
Raw Report DataKHFD 191353Z 15003KT 10SM CLR 07/01 A2976 RMK AO2 SLP077 T00720011
Traffic Incident Summary
Active as of:
Severity:
Category:
InformationThere was an issue retrieving the traffic information for this location. Please try a different location or try again shortly.
Advertisements
Track Severe Weather on mobile